sensor_id;sensor_type;location;lat;lon;timestamp;pressure;altitude;pressure_sealevel;temperature;humidity
67109;BME280;54027;50.786;7.058;2023-02-15T00:01:21;102536.78;;;1.23;97.40
67109;BME280;54027;50.786;7.058;2023-02-15T00:03:49;102539.16;;;1.20;97.64
67109;BME280;54027;50.786;7.058;2023-02-15T00:06:15;102526.59;;;1.23;97.80
67109;BME280;54027;50.786;7.058;2023-02-15T00:08:40;102524.91;;;1.24;97.55
67109;BME280;54027;50.786;7.058;2023-02-15T00:11:09;102530.09;;;1.25;97.67
67109;BME280;54027;50.786;7.058;2023-02-15T00:13:35;102526.41;;;1.20;97.71
67109;BME280;54027;50.786;7.058;2023-02-15T00:16:08;102524.28;;;1.13;97.29
67109;BME280;54027;50.786;7.058;2023-02-15T00:18:33;102512.25;;;1.11;97.46
67109;BME280;54027;50.786;7.058;2023-02-15T00:21:02;102515.53;;;1.08;97.67
67109;BME280;54027;50.786;7.058;2023-02-15T00:23:28;102513.69;;;1.06;97.65
67109;BME280;54027;50.786;7.058;2023-02-15T00:26:02;102518.66;;;1.04;97.59
67109;BME280;54027;50.786;7.058;2023-02-15T00:28:27;102512.63;;;1.02;97.85
67109;BME280;54027;50.786;7.058;2023-02-15T00:30:52;102510.84;;;1.01;97.86
67109;BME280;54027;50.786;7.058;2023-02-15T00:33:18;102509.28;;;1.03;97.75
67109;BME280;54027;50.786;7.058;2023-02-15T00:35:43;102514.03;;;1.12;98.07
67109;BME280;54027;50.786;7.058;2023-02-15T00:38:08;102508.06;;;1.11;98.20
67109;BME280;54027;50.786;7.058;2023-02-15T00:40:33;102511.66;;;1.15;98.39
67109;BME280;54027;50.786;7.058;2023-02-15T00:42:59;102505.59;;;1.13;98.39
67109;BME280;54027;50.786;7.058;2023-02-15T00:45:24;102505.94;;;1.19;98.68
67109;BME280;54027;50.786;7.058;2023-02-15T00:47:49;102510.06;;;1.17;98.63
67109;BME280;54027;50.786;7.058;2023-02-15T00:50:14;102507.41;;;1.15;98.73
67109;BME280;54027;50.786;7.058;2023-02-15T00:52:40;102512.97;;;1.23;98.72
67109;BME280;54027;50.786;7.058;2023-02-15T00:55:05;102507.88;;;1.23;98.61
67109;BME280;54027;50.786;7.058;2023-02-15T00:57:30;102512.44;;;1.28;98.83
67109;BME280;54027;50.786;7.058;2023-02-15T00:59:56;102511.53;;;1.28;98.91
67109;BME280;54027;50.786;7.058;2023-02-15T01:02:21;102510.78;;;1.29;98.59
67109;BME280;54027;50.786;7.058;2023-02-15T01:04:46;102503.66;;;1.23;98.29
67109;BME280;54027;50.786;7.058;2023-02-15T01:07:11;102501.72;;;1.19;98.43
67109;BME280;54027;50.786;7.058;2023-02-15T01:09:37;102502.59;;;1.20;98.68
67109;BME280;54027;50.786;7.058;2023-02-15T01:12:02;102505.84;;;1.17;98.38
67109;BME280;54027;50.786;7.058;2023-02-15T01:14:27;102504.81;;;1.14;98.57
67109;BME280;54027;50.786;7.058;2023-02-15T01:16:52;102500.59;;;1.14;98.46
67109;BME280;54027;50.786;7.058;2023-02-15T01:19:18;102499.44;;;1.09;98.42
67109;BME280;54027;50.786;7.058;2023-02-15T01:21:43;102502.44;;;1.02;98.38
67109;BME280;54027;50.786;7.058;2023-02-15T01:24:12;102498.22;;;1.03;98.58
67109;BME280;54027;50.786;7.058;2023-02-15T01:26:38;102494.69;;;1.01;98.68
67109;BME280;54027;50.786;7.058;2023-02-15T01:29:03;102503.91;;;0.99;98.49
67109;BME280;54027;50.786;7.058;2023-02-15T01:31:28;102495.56;;;1.01;98.91
67109;BME280;54027;50.786;7.058;2023-02-15T01:33:53;102499.19;;;1.05;98.87
67109;BME280;54027;50.786;7.058;2023-02-15T01:36:19;102495.16;;;1.08;99.04
67109;BME280;54027;50.786;7.058;2023-02-15T01:38:44;102489.88;;;1.05;98.89
67109;BME280;54027;50.786;7.058;2023-02-15T01:41:10;102487.22;;;1.04;99.02
67109;BME280;54027;50.786;7.058;2023-02-15T01:43:58;102492.94;;;1.00;99.13
67109;BME280;54027;50.786;7.058;2023-02-15T01:46:35;102483.56;;;0.99;98.94
67109;BME280;54027;50.786;7.058;2023-02-15T01:49:03;102481.88;;;0.99;99.03
67109;BME280;54027;50.786;7.058;2023-02-15T01:51:33;102481.78;;;0.98;99.08
67109;BME280;54027;50.786;7.058;2023-02-15T01:54:05;102485.03;;;0.95;99.47
67109;BME280;54027;50.786;7.058;2023-02-15T01:56:34;102473.00;;;0.93;99.10
67109;BME280;54027;50.786;7.058;2023-02-15T01:59:03;102476.50;;;0.95;99.24
67109;BME280;54027;50.786;7.058;2023-02-15T02:01:29;102471.69;;;0.99;99.35
67109;BME280;54027;50.786;7.058;2023-02-15T02:06:29;102468.38;;;1.00;99.94
67109;BME280;54027;50.786;7.058;2023-02-15T02:08:54;102467.38;;;0.98;99.56
67109;BME280;54027;50.786;7.058;2023-02-15T02:11:21;102464.84;;;0.98;99.70
67109;BME280;54027;50.786;7.058;2023-02-15T02:13:46;102462.31;;;0.98;99.78
67109;BME280;54027;50.786;7.058;2023-02-15T02:29:11;102449.31;;;1.08;99.87
67109;BME280;54027;50.786;7.058;2023-02-15T02:34:30;102446.66;;;1.07;99.97
67109;BME280;54027;50.786;7.058;2023-02-15T02:37:03;102443.41;;;1.09;99.75
67109;BME280;54027;50.786;7.058;2023-02-15T02:39:34;102441.56;;;1.07;99.86
67109;BME280;54027;50.786;7.058;2023-02-15T02:42:06;102435.53;;;1.05;100.00
67109;BME280;54027;50.786;7.058;2023-02-15T02:44:39;102428.94;;;1.08;99.94
67109;BME280;54027;50.786;7.058;2023-02-15T02:47:09;102433.94;;;1.07;99.97
67109;BME280;54027;50.786;7.058;2023-02-15T02:49:40;102434.75;;;1.06;99.97
67109;BME280;54027;50.786;7.058;2023-02-15T02:52:07;102420.19;;;1.03;99.82
67109;BME280;54027;50.786;7.058;2023-02-15T02:54:51;102429.47;;;1.03;99.77
67109;BME280;54027;50.786;7.058;2023-02-15T02:57:17;102427.81;;;1.03;99.92
67109;BME280;54027;50.786;7.058;2023-02-15T02:59:43;102419.91;;;0.99;100.00
67109;BME280;54027;50.786;7.058;2023-02-15T03:02:13;102425.72;;;0.96;99.71
67109;BME280;54027;50.786;7.058;2023-02-15T03:04:50;102418.13;;;0.98;100.00
67109;BME280;54027;50.786;7.058;2023-02-15T03:07:23;102415.69;;;0.99;100.00
67109;BME280;54027;50.786;7.058;2023-02-15T03:09:54;102408.41;;;1.05;100.00
67109;BME280;54027;50.786;7.058;2023-02-15T03:12:38;102403.91;;;1.01;100.00
67109;BME280;54027;50.786;7.058;2023-02-15T03:17:31;102397.78;;;0.98;100.00
67109;BME280;54027;50.786;7.058;2023-02-15T03:19:58;102395.31;;;0.99;100.00
67109;BME280;54027;50.786;7.058;2023-02-15T03:22:33;102392.00;;;1.00;100.00
67109;BME280;54027;50.786;7.058;2023-02-15T03:25:11;102386.09;;;1.01;100.00
67109;BME280;54027;50.786;7.058;2023-02-15T03:27:40;102383.56;;;1.01;100.00
67109;BME280;54027;50.786;7.058;2023-02-15T03:30:07;102389.53;;;1.02;100.00
67109;BME280;54027;50.786;7.058;2023-02-15T03:32:34;102393.56;;;0.98;100.00
67109;BME280;54027;50.786;7.058;2023-02-15T03:35:00;102393.56;;;0.98;100.00
67109;BME280;54027;50.786;7.058;2023-02-15T03:37:36;102400.50;;;1.01;100.00
67109;BME280;54027;50.786;7.058;2023-02-15T03:40:13;102396.28;;;1.01;100.00
67109;BME280;54027;50.786;7.058;2023-02-15T03:43:06;102389.53;;;1.02;100.00
67109;BME280;54027;50.786;7.058;2023-02-15T03:45:35;102396.03;;;0.97;100.00
67109;BME280;54027;50.786;7.058;2023-02-15T03:48:02;102393.84;;;1.03;100.00
67109;BME280;54027;50.786;7.058;2023-02-15T03:50:32;102393.66;;;1.00;99.96
67109;BME280;54027;50.786;7.058;2023-02-15T03:53:18;102386.63;;;0.96;100.00
67109;BME280;54027;50.786;7.058;2023-02-15T03:55:53;102389.19;;;0.96;100.00
67109;BME280;54027;50.786;7.058;2023-02-15T03:58:19;102378.22;;;0.97;100.00
67109;BME280;54027;50.786;7.058;2023-02-15T04:01:04;102378.94;;;0.94;99.97
67109;BME280;54027;50.786;7.058;2023-02-15T04:06:14;102374.63;;;0.93;100.00
67109;BME280;54027;50.786;7.058;2023-02-15T04:08:39;102370.41;;;0.94;100.00
67109;BME280;54027;50.786;7.058;2023-02-15T04:11:23;102371.97;;;0.92;99.94
67109;BME280;54027;50.786;7.058;2023-02-15T04:13:48;102382.31;;;0.95;100.00
67109;BME280;54027;50.786;7.058;2023-02-15T04:16:21;102384.09;;;0.96;100.00
67109;BME280;54027;50.786;7.058;2023-02-15T04:18:46;102379.88;;;0.96;99.93
67109;BME280;54027;50.786;7.058;2023-02-15T04:21:30;102388.66;;;1.01;100.00
67109;BME280;54027;50.786;7.058;2023-02-15T04:24:14;102397.69;;;0.96;99.84
67109;BME280;54027;50.786;7.058;2023-02-15T04:26:59;102392.44;;;0.93;99.73
67109;BME280;54027;50.786;7.058;2023-02-15T04:29:25;102383.47;;;1.00;99.85
67109;BME280;54027;50.786;7.058;2023-02-15T04:31:51;102385.03;;;0.98;99.96
67109;BME280;54027;50.786;7.058;2023-02-15T04:34:17;102383.91;;;0.93;99.59
67109;BME280;54027;50.786;7.058;2023-02-15T04:36:42;102376.09;;;0.90;99.62
67109;BME280;54027;50.786;7.058;2023-02-15T04:39:07;102386.13;;;0.87;99.76
67109;BME280;54027;50.786;7.058;2023-02-15T04:41:33;102375.06;;;0.86;99.82
67109;BME280;54027;50.786;7.058;2023-02-15T04:43:59;102375.88;;;0.85;99.93
67109;BME280;54027;50.786;7.058;2023-02-15T04:46:25;102376.09;;;0.90;99.70
67109;BME280;54027;50.786;7.058;2023-02-15T04:48:51;102371.97;;;0.92;99.56
67109;BME280;54027;50.786;7.058;2023-02-15T04:51:16;102373.56;;;0.90;99.68
67109;BME280;54027;50.786;7.058;2023-02-15T04:53:41;102371.03;;;0.90;99.50
67109;BME280;54027;50.786;7.058;2023-02-15T04:56:06;102366.81;;;0.90;99.51
67109;BME280;54027;50.786;7.058;2023-02-15T04:58:32;102373.66;;;0.91;99.68
67109;BME280;54027;50.786;7.058;2023-02-15T05:00:57;102371.97;;;0.92;99.64
67109;BME280;54027;50.786;7.058;2023-02-15T05:03:23;102371.97;;;0.92;99.54
67109;BME280;54027;50.786;7.058;2023-02-15T05:05:48;102373.56;;;0.90;99.50
67109;BME280;54027;50.786;7.058;2023-02-15T05:08:13;102365.16;;;0.91;99.74
67109;BME280;54027;50.786;7.058;2023-02-15T05:10:39;102361.63;;;0.89;99.44
67109;BME280;54027;50.786;7.058;2023-02-15T05:13:04;102365.16;;;0.91;99.61
67109;BME280;54027;50.786;7.058;2023-02-15T05:15:29;102366.03;;;0.91;99.62
67109;BME280;54027;50.786;7.058;2023-02-15T05:17:54;102368.56;;;0.91;99.39
67109;BME280;54027;50.786;7.058;2023-02-15T05:20:20;102370.94;;;0.88;99.55
67109;BME280;54027;50.786;7.058;2023-02-15T05:22:45;102366.63;;;0.87;99.30
67109;BME280;54027;50.786;7.058;2023-02-15T05:25:10;102366.72;;;0.89;99.38
67109;BME280;54027;50.786;7.058;2023-02-15T05:27:54;102366.53;;;0.86;99.33
67109;BME280;54027;50.786;7.058;2023-02-15T05:30:38;102368.41;;;0.88;99.65
67109;BME280;54027;50.786;7.058;2023-02-15T05:33:05;102365.94;;;0.90;99.41
67109;BME280;54027;50.786;7.058;2023-02-15T05:35:30;102358.22;;;0.88;99.43
67109;BME280;54027;50.786;7.058;2023-02-15T05:37:55;102356.34;;;0.86;99.35
67109;BME280;54027;50.786;7.058;2023-02-15T05:40:20;102352.84;;;0.84;99.63
67109;BME280;54027;50.786;7.058;2023-02-15T05:42:46;102350.47;;;0.87;99.56
67109;BME280;54027;50.786;7.058;2023-02-15T05:45:11;102358.91;;;0.86;99.60
67109;BME280;54027;50.786;7.058;2023-02-15T05:47:36;102365.69;;;0.85;99.36
67109;BME280;54027;50.786;7.058;2023-02-15T05:50:01;102357.94;;;0.84;99.44
67109;BME280;54027;50.786;7.058;2023-02-15T05:52:27;102360.50;;;0.84;99.39
67109;BME280;54027;50.786;7.058;2023-02-15T05:54:52;102360.41;;;0.82;99.44
67109;BME280;54027;50.786;7.058;2023-02-15T05:57:17;102362.59;;;0.91;99.41
67109;BME280;54027;50.786;7.058;2023-02-15T05:59:42;102364.09;;;0.87;99.22
67109;BME280;54027;50.786;7.058;2023-02-15T06:02:07;102369.78;;;0.83;99.33
67109;BME280;54027;50.786;7.058;2023-02-15T06:04:33;102359.97;;;0.89;99.49
67109;BME280;54027;50.786;7.058;2023-02-15T06:06:58;102350.41;;;0.85;99.08
67109;BME280;54027;50.786;7.058;2023-02-15T06:09:23;102362.97;;;0.82;99.12
67109;BME280;54027;50.786;7.058;2023-02-15T06:11:48;102363.91;;;0.84;99.18
67109;BME280;54027;50.786;7.058;2023-02-15T06:14:14;102358.13;;;0.87;99.37
67109;BME280;54027;50.786;7.058;2023-02-15T06:16:39;102359.00;;;0.87;99.38
67109;BME280;54027;50.786;7.058;2023-02-15T06:19:04;102350.31;;;0.84;99.27
67109;BME280;54027;50.786;7.058;2023-02-15T06:21:30;102360.78;;;0.88;99.31
67109;BME280;54027;50.786;7.058;2023-02-15T06:23:55;102355.69;;;0.88;99.31
67109;BME280;54027;50.786;7.058;2023-02-15T06:26:21;102368.31;;;0.87;99.17
67109;BME280;54027;50.786;7.058;2023-02-15T06:28:46;102364.00;;;0.86;98.95
67109;BME280;54027;50.786;7.058;2023-02-15T06:31:11;102358.13;;;0.87;98.92
67109;BME280;54027;50.786;7.058;2023-02-15T06:33:36;102364.09;;;0.87;98.93
67109;BME280;54027;50.786;7.058;2023-02-15T06:36:02;102359.78;;;0.86;99.15
67109;BME280;54027;50.786;7.058;2023-02-15T06:38:28;102365.84;;;0.88;99.08
67109;BME280;54027;50.786;7.058;2023-02-15T06:40:54;102365.84;;;0.88;99.08
67109;BME280;54027;50.786;7.058;2023-02-15T06:43:19;102368.41;;;0.88;98.67
67109;BME280;54027;50.786;7.058;2023-02-15T06:45:44;102372.69;;;0.89;98.80
67109;BME280;54027;50.786;7.058;2023-02-15T06:48:10;102371.72;;;0.87;98.81
67109;BME280;54027;50.786;7.058;2023-02-15T06:50:36;102365.16;;;0.91;98.68
67109;BME280;54027;50.786;7.058;2023-02-15T06:53:01;102365.03;;;0.89;98.89
67109;BME280;54027;50.786;7.058;2023-02-15T06:55:26;102369.09;;;0.86;98.66
67109;BME280;54027;50.786;7.058;2023-02-15T06:57:52;102363.31;;;0.88;98.77
67109;BME280;54027;50.786;7.058;2023-02-15T07:00:17;102368.56;;;0.91;98.55
67109;BME280;54027;50.786;7.058;2023-02-15T07:02:43;102361.00;;;0.93;98.33
67109;BME280;54027;50.786;7.058;2023-02-15T07:05:08;102354.44;;;0.96;98.11
67109;BME280;54027;50.786;7.058;2023-02-15T07:07:34;102361.53;;;1.02;97.81
67109;BME280;54027;50.786;7.058;2023-02-15T07:09:59;102360.75;;;1.03;97.85
67109;BME280;54027;50.786;7.058;2023-02-15T07:12:24;102365.91;;;1.04;97.73
67109;BME280;54027;50.786;7.058;2023-02-15T07:15:09;102362.63;;;1.07;97.74
67109;BME280;54027;50.786;7.058;2023-02-15T07:17:36;102362.97;;;1.13;97.58
67109;BME280;54027;50.786;7.058;2023-02-15T07:20:04;102362.19;;;1.14;97.02
67109;BME280;54027;50.786;7.058;2023-02-15T07:22:30;102358.88;;;1.15;96.99
67109;BME280;54027;50.786;7.058;2023-02-15T07:24:56;102353.22;;;1.20;97.13
67109;BME280;54027;50.786;7.058;2023-02-15T07:27:21;102363.47;;;1.22;97.10
67109;BME280;54027;50.786;7.058;2023-02-15T07:29:46;102357.06;;;1.28;96.55
67109;BME280;54027;50.786;7.058;2023-02-15T07:32:12;102356.34;;;1.31;96.28
67109;BME280;54027;50.786;7.058;2023-02-15T07:34:37;102358.19;;;1.34;96.09
67109;BME280;54027;50.786;7.058;2023-02-15T07:37:02;102344.72;;;1.36;95.99
67109;BME280;54027;50.786;7.058;2023-02-15T07:39:27;102338.94;;;1.39;95.64
67109;BME280;54027;50.786;7.058;2023-02-15T07:41:53;102337.66;;;1.47;95.32
67109;BME280;54027;50.786;7.058;2023-02-15T07:44:18;102331.84;;;1.49;95.21
67109;BME280;54027;50.786;7.058;2023-02-15T07:46:43;102325.41;;;1.56;95.01
67109;BME280;54027;50.786;7.058;2023-02-15T07:49:08;102323.91;;;1.59;94.82
67109;BME280;54027;50.786;7.058;2023-02-15T07:51:34;102318.25;;;1.65;94.48
67109;BME280;54027;50.786;7.058;2023-02-15T07:53:59;102312.50;;;1.69;94.67
67109;BME280;54027;50.786;7.058;2023-02-15T07:56:24;102317.13;;;1.76;93.99
67109;BME280;54027;50.786;7.058;2023-02-15T07:58:49;102311.56;;;1.83;93.29
67109;BME280;54027;50.786;7.058;2023-02-15T08:01:23;102311.06;;;1.90;93.41
67109;BME280;54027;50.786;7.058;2023-02-15T08:03:48;102310.59;;;1.97;93.49
67109;BME280;54027;50.786;7.058;2023-02-15T08:06:14;102307.41;;;2.01;93.05
67109;BME280;54027;50.786;7.058;2023-02-15T08:08:40;102300.91;;;2.08;92.93
67109;BME280;54027;50.786;7.058;2023-02-15T08:11:06;102310.53;;;2.13;92.23
67109;BME280;54027;50.786;7.058;2023-02-15T08:13:54;102301.63;;;2.21;91.80
67109;BME280;54027;50.786;7.058;2023-02-15T08:16:27;102296.09;;;2.30;90.94
67109;BME280;54027;50.786;7.058;2023-02-15T08:18:53;102297.19;;;2.35;91.32
67109;BME280;54027;50.786;7.058;2023-02-15T08:21:19;102291.59;;;2.42;90.66
67109;BME280;54027;50.786;7.058;2023-02-15T08:23:45;102286.09;;;2.52;90.35
67109;BME280;54027;50.786;7.058;2023-02-15T08:26:10;102277.91;;;2.58;89.63
67109;BME280;54027;50.786;7.058;2023-02-15T08:28:35;102284.16;;;2.64;89.32
67109;BME280;54027;50.786;7.058;2023-02-15T08:31:07;102276.72;;;2.69;89.23
67109;BME280;54027;50.786;7.058;2023-02-15T08:33:33;102279.72;;;2.78;88.90
67109;BME280;54027;50.786;7.058;2023-02-15T08:36:03;102269.94;;;2.87;87.73
67109;BME280;54027;50.786;7.058;2023-02-15T08:38:28;102273.63;;;2.93;87.38
67109;BME280;54027;50.786;7.058;2023-02-15T08:40:53;102285.09;;;3.02;86.94
67109;BME280;54027;50.786;7.058;2023-02-15T08:43:18;102279.38;;;3.07;87.09
67109;BME280;54027;50.786;7.058;2023-02-15T08:45:44;102285.69;;;3.15;87.01
67109;BME280;54027;50.786;7.058;2023-02-15T08:48:09;102280.09;;;3.22;86.14
67109;BME280;54027;50.786;7.058;2023-02-15T08:50:34;102269.41;;;3.31;85.83
67109;BME280;54027;50.786;7.058;2023-02-15T08:52:59;102267.16;;;3.38;84.73
67109;BME280;54027;50.786;7.058;2023-02-15T08:55:25;102270.00;;;3.44;84.47
67109;BME280;54027;50.786;7.058;2023-02-15T08:57:50;102270.34;;;3.52;85.07
67109;BME280;54027;50.786;7.058;2023-02-15T09:00:15;102268.06;;;3.58;84.91
67109;BME280;54027;50.786;7.058;2023-02-15T09:02:41;102260.84;;;3.69;84.35
67109;BME280;54027;50.786;7.058;2023-02-15T09:05:06;102251.88;;;3.78;83.84
67109;BME280;54027;50.786;7.058;2023-02-15T09:07:31;102246.25;;;3.85;82.93
67109;BME280;54027;50.786;7.058;2023-02-15T09:09:56;102249.03;;;3.91;82.61
67109;BME280;54027;50.786;7.058;2023-02-15T09:12:22;102247.81;;;4.02;81.50
67109;BME280;54027;50.786;7.058;2023-02-15T09:14:47;102249.06;;;4.12;80.92
67109;BME280;54027;50.786;7.058;2023-02-15T09:17:12;102245.13;;;4.20;80.66
67109;BME280;54027;50.786;7.058;2023-02-15T09:19:37;102245.38;;;4.26;80.94
67109;BME280;54027;50.786;7.058;2023-02-15T09:22:02;102243.19;;;4.35;80.49
67109;BME280;54027;50.786;7.058;2023-02-15T09:24:31;102245.25;;;4.44;80.74
67109;BME280;54027;50.786;7.058;2023-02-15T09:26:58;102244.72;;;4.52;79.88
67109;BME280;54027;50.786;7.058;2023-02-15T09:29:24;102242.47;;;4.60;79.39
67109;BME280;54027;50.786;7.058;2023-02-15T09:31:50;102245.25;;;4.66;78.88
67109;BME280;54027;50.786;7.058;2023-02-15T09:34:16;102246.50;;;4.76;78.97
67109;BME280;54027;50.786;7.058;2023-02-15T09:36:42;102247.53;;;4.81;78.61
67109;BME280;54027;50.786;7.058;2023-02-15T09:39:09;102236.81;;;4.89;78.00
67109;BME280;54027;50.786;7.058;2023-02-15T09:49:36;102248.13;;;5.18;76.11
67109;BME280;54027;50.786;7.058;2023-02-15T09:52:01;102238.88;;;5.21;76.04
67109;BME280;54027;50.786;7.058;2023-02-15T09:57:08;102235.09;;;5.36;75.74
67109;BME280;54027;50.786;7.058;2023-02-15T09:59:48;102245.69;;;5.45;76.34
67109;BME280;54027;50.786;7.058;2023-02-15T10:02:24;102227.34;;;5.58;75.56
67109;BME280;54027;50.786;7.058;2023-02-15T10:15:28;102206.03;;;6.09;72.96
67109;BME280;54027;50.786;7.058;2023-02-15T10:18:17;102196.84;;;6.16;72.30
67109;BME280;54027;50.786;7.058;2023-02-15T10:28:06;102192.88;;;6.54;71.97
67109;BME280;54027;50.786;7.058;2023-02-15T10:30:59;102165.72;;;6.62;71.05
67109;BME280;54027;50.786;7.058;2023-02-15T10:33:25;102176.25;;;6.69;70.94
67109;BME280;54027;50.786;7.058;2023-02-15T10:54:08;102157.66;;;7.37;69.94
67109;BME280;54027;50.786;7.058;2023-02-15T11:02:23;102103.63;;;7.70;68.50
67109;BME280;54027;50.786;7.058;2023-02-15T11:04:53;102104.66;;;7.77;67.97
67109;BME280;54027;50.786;7.058;2023-02-15T11:09:50;102073.78;;;7.78;66.88
67109;BME280;54027;50.786;7.058;2023-02-15T11:12:20;102065.38;;;7.85;66.50
67109;BME280;54027;50.786;7.058;2023-02-15T11:14:51;102069.13;;;7.98;66.40
67109;BME280;54027;50.786;7.058;2023-02-15T11:17:24;102059.88;;;8.08;66.85
67109;BME280;54027;50.786;7.058;2023-02-15T11:19:56;102054.78;;;8.09;66.67
67109;BME280;54027;50.786;7.058;2023-02-15T11:22:23;102047.19;;;8.15;65.87
67109;BME280;54027;50.786;7.058;2023-02-15T11:24:49;102061.16;;;8.26;66.92
67109;BME280;54027;50.786;7.058;2023-02-15T11:32:21;102015.34;;;8.53;65.20
67109;BME280;54027;50.786;7.058;2023-02-15T11:35:04;102012.91;;;8.60;64.86
67109;BME280;54027;50.786;7.058;2023-02-15T11:42:44;101984.25;;;8.91;63.69
67109;BME280;54027;50.786;7.058;2023-02-15T11:45:29;101992.09;;;8.97;63.79
67109;BME280;54027;50.786;7.058;2023-02-15T11:47:55;101993.19;;;9.09;63.54
67109;BME280;54027;50.786;7.058;2023-02-15T11:50:26;101990.78;;;9.19;63.75
67109;BME280;54027;50.786;7.058;2023-02-15T11:52:52;101972.00;;;9.27;62.58
67109;BME280;54027;50.786;7.058;2023-02-15T11:55:20;101981.59;;;9.36;62.96
67109;BME280;54027;50.786;7.058;2023-02-15T11:57:50;101981.75;;;9.45;62.88
67109;BME280;54027;50.786;7.058;2023-02-15T12:00:23;101963.81;;;9.52;61.86
67109;BME280;54027;50.786;7.058;2023-02-15T12:02:52;101961.38;;;9.61;62.10
67109;BME280;54027;50.786;7.058;2023-02-15T12:05:19;101949.41;;;9.66;62.15
67109;BME280;54027;50.786;7.058;2023-02-15T12:08:03;101945.22;;;9.73;62.00
67109;BME280;54027;50.786;7.058;2023-02-15T12:10:36;101939.25;;;9.80;61.24
67109;BME280;54027;50.786;7.058;2023-02-15T12:13:16;101930.78;;;9.89;60.91
67109;BME280;54027;50.786;7.058;2023-02-15T12:15:42;101919.63;;;9.93;60.77
67109;BME280;54027;50.786;7.058;2023-02-15T12:18:26;101917.13;;;9.99;60.28
67109;BME280;54027;50.786;7.058;2023-02-15T12:20:59;101918.03;;;10.04;60.25
67109;BME280;54027;50.786;7.058;2023-02-15T12:23:27;101896.59;;;10.08;60.18
67109;BME280;54027;50.786;7.058;2023-02-15T12:25:53;101893.19;;;10.13;59.46
67109;BME280;54027;50.786;7.058;2023-02-15T12:28:25;101892.34;;;10.14;59.72
67109;BME280;54027;50.786;7.058;2023-02-15T12:30:52;101905.25;;;10.13;60.53
67109;BME280;54027;50.786;7.058;2023-02-15T12:33:31;101894.00;;;10.09;59.66
67109;BME280;54027;50.786;7.058;2023-02-15T12:36:17;101878.50;;;10.09;59.60
67109;BME280;54027;50.786;7.058;2023-02-15T12:38:43;101897.38;;;10.02;60.17
67109;BME280;54027;50.786;7.058;2023-02-15T12:41:26;101907.75;;;10.07;60.77
67109;BME280;54027;50.786;7.058;2023-02-15T12:44:16;101895.78;;;10.15;59.20
67109;BME280;54027;50.786;7.058;2023-02-15T12:46:47;101889.88;;;10.23;59.50
67109;BME280;54027;50.786;7.058;2023-02-15T12:49:21;101878.78;;;10.32;59.53
67109;BME280;54027;50.786;7.058;2023-02-15T12:51:47;101865.06;;;10.42;58.32
67109;BME280;54027;50.786;7.058;2023-02-15T12:56:44;101872.09;;;10.57;58.63
67109;BME280;54027;50.786;7.058;2023-02-15T12:59:10;101869.56;;;10.63;58.47
67109;BME280;54027;50.786;7.058;2023-02-15T13:01:37;101867.88;;;10.65;58.05
67109;BME280;54027;50.786;7.058;2023-02-15T13:04:04;101859.31;;;10.70;57.75
67109;BME280;54027;50.786;7.058;2023-02-15T13:06:31;101845.50;;;10.70;57.54
67109;BME280;54027;50.786;7.058;2023-02-15T13:08:58;101855.06;;;10.77;58.07
67109;BME280;54027;50.786;7.058;2023-02-15T13:11:30;101844.75;;;10.80;57.98
67109;BME280;54027;50.786;7.058;2023-02-15T13:14:03;101847.38;;;10.88;57.65
67109;BME280;54027;50.786;7.058;2023-02-15T13:18:57;101825.06;;;11.00;56.77
67109;BME280;54027;50.786;7.058;2023-02-15T13:21:31;101839.75;;;11.07;58.22
67109;BME280;54027;50.786;7.058;2023-02-15T13:23:59;101814.78;;;11.14;57.26
67109;BME280;54027;50.786;7.058;2023-02-15T13:26:26;101818.28;;;11.22;57.48
67109;BME280;54027;50.786;7.058;2023-02-15T13:28:54;101824.34;;;11.28;57.41
67109;BME280;54027;50.786;7.058;2023-02-15T13:31:22;101819.22;;;11.33;57.58
67109;BME280;54027;50.786;7.058;2023-02-15T13:34:07;101821.94;;;11.48;56.96
67109;BME280;54027;50.786;7.058;2023-02-15T13:41:34;101777.22;;;12.23;55.54
67109;BME280;54027;50.786;7.058;2023-02-15T13:46:36;101777.22;;;12.32;55.16
67109;BME280;54027;50.786;7.058;2023-02-15T13:51:40;101760.81;;;12.44;54.37
67109;BME280;54027;50.786;7.058;2023-02-15T13:59:10;101773.75;;;12.18;55.56
67109;BME280;54027;50.786;7.058;2023-02-15T14:01:40;101773.75;;;12.12;55.53
67109;BME280;54027;50.786;7.058;2023-02-15T14:14:57;101801.31;;;11.81;56.68
67109;BME280;54027;50.786;7.058;2023-02-15T14:19:54;101804.78;;;11.80;56.85
67109;BME280;54027;50.786;7.058;2023-02-15T14:30:40;101807.25;;;11.55;57.33
67109;BME280;54027;50.786;7.058;2023-02-15T14:36:05;101825.28;;;11.38;58.22
67109;BME280;54027;50.786;7.058;2023-02-15T14:41:28;101839.91;;;11.27;59.44
67109;BME280;54027;50.786;7.058;2023-02-15T14:48:52;101837.28;;;11.25;58.45
67109;BME280;54027;50.786;7.058;2023-02-15T14:54:02;101845.03;;;11.22;59.82
67109;BME280;54027;50.786;7.058;2023-02-15T14:56:27;101834.69;;;11.24;59.03
67109;BME280;54027;50.786;7.058;2023-02-15T15:01:34;101828.66;;;11.26;58.91
67109;BME280;54027;50.786;7.058;2023-02-15T15:04:08;101839.00;;;11.23;59.27
67109;BME280;54027;50.786;7.058;2023-02-15T15:06:35;101837.28;;;11.24;59.46
67109;BME280;54027;50.786;7.058;2023-02-15T15:09:09;101847.66;;;11.27;59.83
67109;BME280;54027;50.786;7.058;2023-02-15T15:14:07;101824.31;;;11.22;58.90
67109;BME280;54027;50.786;7.058;2023-02-15T15:19:02;101843.28;;;11.17;59.57
67109;BME280;54027;50.786;7.058;2023-02-15T15:25:39;101847.50;;;11.07;60.01
67109;BME280;54027;50.786;7.058;2023-02-15T15:32:39;101874.97;;;10.90;61.22
67109;BME280;54027;50.786;7.058;2023-02-15T15:43:19;101873.16;;;10.77;61.56
67109;BME280;54027;50.786;7.058;2023-02-15T15:46:11;101877.44;;;10.73;62.10
67109;BME280;54027;50.786;7.058;2023-02-15T15:48:39;101879.06;;;10.64;61.88
67109;BME280;54027;50.786;7.058;2023-02-15T15:51:09;101884.19;;;10.58;62.41
67109;BME280;54027;50.786;7.058;2023-02-15T15:53:43;101889.28;;;10.52;61.94